Lowell Highlands, MA

10 Minute Time Series

17-Jan-2018 10:20 PM

TimeTempHumidityDewpointBarometerWindSpeedWindGustWind DirRain
17-Jan-2018 12:10 AM31.2°F87%27.8°F30.385 inHg0 mph1 mph N/A (N/A)0.00 in
17-Jan-2018 12:20 AM31.2°F87%27.8°F30.383 inHg0 mph0 mph N/A (N/A)0.00 in
17-Jan-2018 12:30 AM31.2°F88%28.1°F30.381 inHg0 mph0 mph N/A (N/A)0.00 in
17-Jan-2018 12:40 AM31.2°F88%28.1°F30.381 inHg0 mph0 mph N/A (N/A)0.00 in
17-Jan-2018 12:50 AM31.1°F88%28.0°F30.377 inHg0 mph0 mph N/A (N/A)0.00 in
17-Jan-2018 01:00 AM31.1°F88%28.0°F30.374 inHg0 mph0 mph N/A (N/A)0.00 in
17-Jan-2018 01:10 AM31.1°F89%28.2°F30.375 inHg0 mph0 mph N/A (N/A)0.00 in
17-Jan-2018 01:20 AM31.1°F89%28.2°F30.378 inHg0 mph0 mph N/A (N/A)0.00 in
17-Jan-2018 01:30 AM31.1°F90%28.5°F30.376 inHg0 mph0 mph N/A (N/A)0.00 in
17-Jan-2018 01:40 AM31.1°F90%28.5°F30.379 inHg0 mph0 mph N/A (N/A)0.00 in
17-Jan-2018 01:50 AM31.0°F90%28.4°F30.379 inHg0 mph1 mph185° (S)0.00 in
17-Jan-2018 02:00 AM31.0°F91%28.7°F30.379 inHg0 mph1 mph185° (S)0.00 in
17-Jan-2018 02:10 AM30.9°F91%28.6°F30.377 inHg0 mph2 mph146° (SE)0.00 in
17-Jan-2018 02:20 AM30.8°F92%28.8°F30.377 inHg1 mph2 mph127° (SE)0.00 in
17-Jan-2018 02:30 AM30.7°F92%28.7°F30.377 inHg1 mph2 mph115° (ESE)0.00 in
17-Jan-2018 02:40 AM30.6°F92%28.6°F30.374 inHg1 mph2 mph115° (ESE)0.00 in
17-Jan-2018 02:50 AM30.6°F92%28.6°F30.375 inHg0 mph2 mph115° (ESE)0.00 in
17-Jan-2018 03:00 AM30.6°F92%28.6°F30.370 inHg0 mph1 mph115° (ESE)0.00 in
17-Jan-2018 03:10 AM30.5°F93%28.7°F30.368 inHg0 mph1 mph115° (ESE)0.00 in
17-Jan-2018 03:20 AM30.5°F93%28.7°F30.365 inHg0 mph1 mph N/A (N/A)0.00 in
17-Jan-2018 03:30 AM30.5°F93%28.7°F30.363 inHg0 mph1 mph115° (ESE)0.00 in
17-Jan-2018 03:40 AM30.5°F93%28.7°F30.358 inHg0 mph1 mph115° (ESE)0.00 in
17-Jan-2018 03:50 AM30.5°F93%28.7°F30.352 inHg0 mph1 mph115° (ESE)0.00 in
17-Jan-2018 04:00 AM30.5°F93%28.7°F30.351 inHg0 mph1 mph115° (ESE)0.00 in
17-Jan-2018 04:10 AM30.5°F93%28.7°F30.349 inHg0 mph1 mph115° (ESE)0.00 in
17-Jan-2018 04:20 AM30.6°F93%28.8°F30.346 inHg0 mph2 mph115° (ESE)0.00 in
17-Jan-2018 04:30 AM30.5°F94%29.0°F30.351 inHg0 mph2 mph115° (ESE)0.00 in
17-Jan-2018 04:40 AM30.5°F93%28.7°F30.344 inHg0 mph2 mph N/A (N/A)0.00 in
17-Jan-2018 04:50 AM30.5°F93%28.7°F30.342 inHg0 mph0 mph N/A (N/A)0.00 in
17-Jan-2018 05:00 AM30.4°F94%28.9°F30.340 inHg0 mph1 mph115° (ESE)0.00 in
17-Jan-2018 05:10 AM30.4°F94%28.9°F30.340 inHg0 mph1 mph115° (ESE)0.00 in
17-Jan-2018 05:20 AM30.4°F94%28.9°F30.339 inHg0 mph2 mph107° (ESE)0.00 in
17-Jan-2018 05:30 AM30.4°F94%28.9°F30.336 inHg0 mph2 mph101° (E)0.00 in
17-Jan-2018 05:40 AM30.3°F94%28.8°F30.329 inHg1 mph2 mph84° (E)0.00 in
17-Jan-2018 05:50 AM30.3°F94%28.8°F30.329 inHg0 mph2 mph90° (E)0.00 in
17-Jan-2018 06:00 AM30.2°F94%28.7°F30.322 inHg0 mph3 mph81° (E)0.00 in
17-Jan-2018 06:10 AM30.2°F94%28.7°F30.324 inHg0 mph3 mph96° (E)0.00 in
17-Jan-2018 06:20 AM30.2°F94%28.7°F30.324 inHg0 mph1 mph N/A (N/A)0.00 in
17-Jan-2018 06:30 AM30.2°F94%28.7°F30.325 inHg0 mph1 mph93° (E)0.00 in
17-Jan-2018 06:40 AM30.2°F94%28.7°F30.325 inHg0 mph1 mph69° (ENE)0.00 in
17-Jan-2018 06:50 AM30.2°F94%28.7°F30.317 inHg0 mph1 mph N/A (N/A)0.00 in
17-Jan-2018 07:00 AM30.2°F94%28.7°F30.314 inHg0 mph0 mph N/A (N/A)0.00 in
17-Jan-2018 07:10 AM30.3°F94%28.8°F30.312 inHg0 mph0 mph N/A (N/A)0.00 in
17-Jan-2018 07:20 AM30.3°F94%28.8°F30.310 inHg0 mph0 mph N/A (N/A)0.00 in
17-Jan-2018 07:30 AM30.4°F94%28.9°F30.309 inHg0 mph2 mph50° (NE)0.00 in
17-Jan-2018 07:40 AM30.5°F94%29.0°F30.305 inHg1 mph2 mph33° (NNE)0.00 in
17-Jan-2018 07:50 AM30.6°F94%29.1°F30.299 inHg1 mph2 mph22° (NNE)0.00 in
17-Jan-2018 08:00 AM30.6°F94%29.1°F30.299 inHg1 mph3 mph23° (NNE)0.00 in
17-Jan-2018 08:10 AM30.5°F94%29.0°F30.291 inHg1 mph4 mph29° (NNE)0.00 in
17-Jan-2018 08:20 AM30.5°F94%29.0°F30.291 inHg1 mph4 mph24° (NNE)0.00 in
17-Jan-2018 08:30 AM30.5°F94%29.0°F30.289 inHg2 mph4 mph28° (NNE)0.00 in
17-Jan-2018 08:40 AM30.6°F95%29.3°F30.290 inHg1 mph4 mph31° (NNE)0.00 in
17-Jan-2018 08:50 AM30.6°F95%29.3°F30.283 inHg1 mph4 mph24° (NNE)0.00 in
17-Jan-2018 09:00 AM30.7°F95%29.4°F30.281 inHg1 mph4 mph32° (NNE)0.00 in
17-Jan-2018 09:10 AM30.8°F95%29.5°F30.280 inHg1 mph3 mph40° (NE)0.00 in
17-Jan-2018 09:20 AM30.9°F95%29.6°F30.281 inHg1 mph3 mph41° (NE)0.00 in
17-Jan-2018 09:30 AM31.1°F95%29.8°F30.281 inHg1 mph3 mph31° (NNE)0.00 in
17-Jan-2018 09:40 AM31.2°F95%29.9°F30.282 inHg1 mph4 mph20° (NNE)0.00 in
17-Jan-2018 09:50 AM31.2°F95%29.9°F30.279 inHg2 mph4 mph12° (NNE)0.00 in
17-Jan-2018 10:00 AM31.3°F95%30.0°F30.278 inHg1 mph4 mph355° (N)0.00 in
17-Jan-2018 10:10 AM31.4°F95%30.1°F30.271 inHg2 mph4 mph358° (N)0.00 in
17-Jan-2018 10:20 AM31.6°F95%30.3°F30.271 inHg1 mph4 mph0° (N)0.00 in
17-Jan-2018 10:30 AM31.7°F95%30.4°F30.267 inHg2 mph5 mph10° (N)0.00 in
17-Jan-2018 10:40 AM31.6°F95%30.3°F30.263 inHg3 mph5 mph16° (NNE)0.00 in
17-Jan-2018 10:50 AM31.7°F95%30.4°F30.258 inHg2 mph5 mph20° (NNE)0.00 in
17-Jan-2018 11:00 AM31.9°F95%30.6°F30.251 inHg2 mph6 mph21° (NNE)0.00 in
17-Jan-2018 11:10 AM31.9°F95%30.6°F30.242 inHg3 mph6 mph22° (NNE)0.00 in
17-Jan-2018 11:20 AM32.1°F95%30.8°F30.230 inHg2 mph5 mph17° (NNE)0.00 in
17-Jan-2018 11:30 AM32.3°F95%31.0°F30.225 inHg2 mph5 mph21° (NNE)0.00 in
17-Jan-2018 11:40 AM32.2°F94%30.7°F30.218 inHg3 mph7 mph16° (NNE)0.00 in
17-Jan-2018 11:50 AM32.5°F95%31.2°F30.209 inHg2 mph7 mph15° (NNE)0.00 in
17-Jan-2018 12:00 PM32.7°F94%31.2°F30.198 inHg2 mph6 mph14° (NNE)0.00 in
17-Jan-2018 12:10 PM32.7°F94%31.2°F30.194 inHg3 mph6 mph18° (NNE)0.00 in
17-Jan-2018 12:20 PM32.5°F94%31.0°F30.185 inHg4 mph9 mph13° (NNE)0.00 in
17-Jan-2018 12:30 PM32.6°F94%31.1°F30.174 inHg2 mph9 mph22° (NNE)0.00 in
17-Jan-2018 12:40 PM32.8°F94%31.3°F30.174 inHg3 mph7 mph9° (N)0.00 in
17-Jan-2018 12:50 PM32.6°F94%31.1°F30.167 inHg3 mph7 mph8° (N)0.00 in
17-Jan-2018 01:00 PM32.6°F94%31.1°F30.167 inHg2 mph7 mph19° (NNE)0.00 in
17-Jan-2018 01:10 PM32.6°F94%31.1°F30.162 inHg2 mph6 mph358° (N)0.00 in
17-Jan-2018 01:20 PM32.5°F94%31.0°F30.161 inHg2 mph6 mph12° (NNE)0.00 in
17-Jan-2018 01:30 PM32.3°F94%30.8°F30.151 inHg3 mph7 mph18° (NNE)0.01 in
17-Jan-2018 01:40 PM32.3°F94%30.8°F30.144 inHg2 mph7 mph9° (N)0.00 in
17-Jan-2018 01:50 PM32.4°F94%30.9°F30.142 inHg3 mph8 mph23° (NNE)0.00 in
17-Jan-2018 02:00 PM32.4°F94%30.9°F30.136 inHg3 mph8 mph25° (NNE)0.01 in
17-Jan-2018 02:10 PM32.4°F94%30.9°F30.136 inHg3 mph7 mph359° (N)0.00 in
17-Jan-2018 02:20 PM32.4°F94%30.9°F30.133 inHg2 mph7 mph1° (N)0.00 in
17-Jan-2018 02:30 PM32.4°F94%30.9°F30.136 inHg3 mph6 mph7° (N)0.01 in
17-Jan-2018 02:40 PM32.3°F94%30.8°F30.129 inHg3 mph6 mph12° (NNE)0.00 in
17-Jan-2018 02:50 PM32.2°F94%30.7°F30.126 inHg3 mph6 mph337° (NNW)0.00 in
17-Jan-2018 03:00 PM32.1°F94%30.6°F30.127 inHg3 mph6 mph344° (NNW)0.00 in
17-Jan-2018 03:10 PM32.0°F94%30.5°F30.128 inHg2 mph6 mph347° (NNW)0.01 in
17-Jan-2018 03:20 PM31.9°F94%30.4°F30.126 inHg3 mph7 mph350° (N)0.00 in
17-Jan-2018 03:30 PM31.9°F94%30.4°F30.122 inHg3 mph7 mph9° (N)0.00 in
17-Jan-2018 03:40 PM31.8°F94%30.3°F30.121 inHg2 mph5 mph344° (NNW)0.00 in
17-Jan-2018 03:50 PM31.9°F94%30.4°F30.122 inHg2 mph4 mph358° (N)0.00 in
17-Jan-2018 04:00 PM31.8°F94%30.3°F30.122 inHg1 mph4 mph338° (NNW)0.01 in
17-Jan-2018 04:10 PM31.8°F95%30.5°F30.122 inHg1 mph4 mph328° (NNW)0.00 in
17-Jan-2018 04:20 PM31.8°F95%30.5°F30.122 inHg1 mph3 mph346° (NNW)0.00 in
17-Jan-2018 04:30 PM31.7°F94%30.2°F30.116 inHg1 mph4 mph341° (NNW)0.00 in
17-Jan-2018 04:40 PM31.7°F95%30.4°F30.111 inHg2 mph4 mph348° (NNW)0.00 in
17-Jan-2018 04:50 PM31.6°F95%30.3°F30.107 inHg1 mph4 mph351° (N)0.00 in
17-Jan-2018 05:00 PM31.6°F95%30.3°F30.107 inHg1 mph4 mph339° (NNW)0.00 in
17-Jan-2018 05:10 PM31.7°F95%30.4°F30.107 inHg1 mph4 mph342° (NNW)0.00 in
17-Jan-2018 05:20 PM31.7°F95%30.4°F30.103 inHg1 mph2 mph9° (N)0.01 in
17-Jan-2018 05:30 PM31.7°F95%30.4°F30.100 inHg0 mph2 mph5° (N)0.00 in
17-Jan-2018 05:40 PM31.8°F95%30.5°F30.102 inHg1 mph2 mph356° (N)0.00 in
17-Jan-2018 05:50 PM31.8°F95%30.5°F30.097 inHg1 mph2 mph341° (NNW)0.00 in
17-Jan-2018 06:00 PM31.7°F95%30.4°F30.099 inHg1 mph4 mph335° (NNW)0.00 in
17-Jan-2018 06:10 PM31.7°F95%30.4°F30.097 inHg2 mph4 mph312° (NW)0.00 in
17-Jan-2018 06:20 PM31.6°F95%30.3°F30.095 inHg1 mph3 mph324° (NW)0.00 in
17-Jan-2018 06:30 PM31.5°F95%30.2°F30.095 inHg2 mph4 mph330° (NNW)0.00 in
17-Jan-2018 06:40 PM31.5°F95%30.2°F30.088 inHg1 mph4 mph351° (N)0.00 in
17-Jan-2018 06:50 PM31.5°F95%30.2°F30.086 inHg0 mph3 mph340° (NNW)0.00 in
17-Jan-2018 07:00 PM31.5°F95%30.2°F30.085 inHg1 mph2 mph341° (NNW)0.00 in
17-Jan-2018 07:10 PM31.5°F95%30.2°F30.082 inHg1 mph3 mph342° (NNW)0.00 in
17-Jan-2018 07:20 PM31.4°F95%30.1°F30.083 inHg1 mph3 mph313° (NW)0.00 in
17-Jan-2018 07:30 PM31.2°F95%29.9°F30.080 inHg1 mph3 mph334° (NNW)0.00 in
17-Jan-2018 07:40 PM31.1°F95%29.8°F30.080 inHg1 mph2 mph324° (NW)0.00 in
17-Jan-2018 07:50 PM31.0°F95%29.7°F30.080 inHg1 mph3 mph320° (NW)0.00 in
17-Jan-2018 08:00 PM30.9°F95%29.6°F30.071 inHg1 mph3 mph337° (NNW)0.00 in
17-Jan-2018 08:10 PM30.8°F95%29.5°F30.074 inHg1 mph2 mph324° (NW)0.00 in
17-Jan-2018 08:20 PM30.7°F95%29.4°F30.070 inHg1 mph3 mph311° (NW)0.00 in
17-Jan-2018 08:30 PM30.6°F95%29.3°F30.073 inHg1 mph3 mph313° (NW)0.00 in
17-Jan-2018 08:40 PM30.5°F95%29.2°F30.071 inHg2 mph4 mph312° (NW)0.00 in
17-Jan-2018 08:50 PM30.5°F95%29.2°F30.072 inHg2 mph5 mph324° (NW)0.00 in
17-Jan-2018 09:00 PM30.4°F95%29.1°F30.072 inHg1 mph5 mph317° (NW)0.00 in
17-Jan-2018 09:10 PM30.3°F95%29.0°F30.070 inHg2 mph4 mph304° (NW)0.00 in
17-Jan-2018 09:20 PM30.3°F95%29.0°F30.067 inHg1 mph4 mph329° (NNW)0.00 in
17-Jan-2018 09:30 PM30.2°F95%28.9°F30.075 inHg1 mph3 mph327° (NNW)0.00 in
17-Jan-2018 09:40 PM30.2°F95%28.9°F30.078 inHg1 mph3 mph317° (NW)0.00 in
17-Jan-2018 09:50 PM30.1°F95%28.8°F30.078 inHg1 mph3 mph299° (WNW)0.00 in
17-Jan-2018 10:00 PM30.1°F95%28.8°F30.069 inHg1 mph3 mph314° (NW)0.00 in
17-Jan-2018 10:10 PM30.1°F95%28.8°F30.067 inHg1 mph3 mph317° (NW)0.00 in
17-Jan-2018 10:20 PM30.1°F95%28.8°F30.061 inHg0 mph3 mph268° (W)0.00 in